createdAt,value
2022-10-22T00:02:05.921Z,16.72
2022-10-22T00:04:35.396Z,16.76
2022-10-22T00:07:03.468Z,16.76
2022-10-22T00:09:32.535Z,16.75
2022-10-22T00:12:00.319Z,16.76
2022-10-22T00:14:27.921Z,16.76
2022-10-22T00:16:56.325Z,16.81
2022-10-22T00:19:23.909Z,16.87
2022-10-22T00:21:51.468Z,16.85
2022-10-22T00:24:19.206Z,16.84
2022-10-22T00:26:48.220Z,16.77
2022-10-22T00:29:18.614Z,16.69
2022-10-22T00:31:49.743Z,16.67
2022-10-22T00:34:18.066Z,16.64
2022-10-22T00:36:45.680Z,16.63
2022-10-22T00:39:16.074Z,16.70
2022-10-22T00:41:43.903Z,16.74
2022-10-22T00:44:44.872Z,16.76
2022-10-22T00:47:14.291Z,16.79
2022-10-22T00:49:42.176Z,16.78
2022-10-22T00:52:10.309Z,16.81
2022-10-22T00:54:38.781Z,16.77
2022-10-22T00:57:06.508Z,16.72
2022-10-22T00:59:34.487Z,16.66
2022-10-22T01:02:02.048Z,16.59
2022-10-22T01:04:31.015Z,16.55
2022-10-22T01:06:58.631Z,16.52
2022-10-22T01:09:34.533Z,16.44
2022-10-22T01:12:10.652Z,16.41
2022-10-22T01:14:53.286Z,16.33
2022-10-22T01:17:31.270Z,16.35
2022-10-22T01:20:11.744Z,16.33
2022-10-22T01:22:43.846Z,16.28
2022-10-22T01:25:17.439Z,16.26
2022-10-22T01:27:56.737Z,16.27
2022-10-22T01:30:27.087Z,16.31
2022-10-22T01:33:00.293Z,16.24
2022-10-22T01:38:07.763Z,16.21
2022-10-22T01:40:37.463Z,16.17
2022-10-22T01:43:07.459Z,16.18
2022-10-22T01:45:39.347Z,16.21
2022-10-22T01:48:22.194Z,16.21
2022-10-22T01:51:06.149Z,16.18
2022-10-22T01:53:41.721Z,16.25
2022-10-22T01:56:26.073Z,16.24
2022-10-22T01:59:05.577Z,16.23
2022-10-22T02:01:42.540Z,16.26
2022-10-22T02:04:18.122Z,16.24
2022-10-22T02:06:47.937Z,16.19
2022-10-22T02:09:18.623Z,16.21
2022-10-22T02:11:47.279Z,16.21
2022-10-22T02:14:17.044Z,16.23
2022-10-22T02:16:48.619Z,16.23
2022-10-22T02:19:21.201Z,16.23
2022-10-22T02:21:48.852Z,16.19
2022-10-22T02:24:18.380Z,16.22
2022-10-22T02:26:53.342Z,16.17
2022-10-22T02:29:26.646Z,16.21
2022-10-22T02:31:57.764Z,16.21
2022-10-22T02:34:29.934Z,16.21
2022-10-22T02:36:58.431Z,16.16
2022-10-22T02:39:27.412Z,16.19
2022-10-22T02:41:55.516Z,16.17
2022-10-22T02:44:23.596Z,16.11
2022-10-22T02:46:51.466Z,16.11
2022-10-22T02:49:20.529Z,16.13
2022-10-22T02:51:48.184Z,16.14
2022-10-22T02:54:15.822Z,16.24
2022-10-22T02:56:43.741Z,16.22
2022-10-22T02:59:11.493Z,16.19
2022-10-22T03:01:39.131Z,16.17
2022-10-22T03:04:06.767Z,16.13
2022-10-22T03:06:35.781Z,16.17
2022-10-22T03:09:03.430Z,16.17
2022-10-22T03:11:31.092Z,16.25
2022-10-22T03:13:58.675Z,16.22
2022-10-22T03:16:26.235Z,16.25
2022-10-22T03:18:53.842Z,16.29
2022-10-22T03:21:30.753Z,16.28
2022-10-22T03:24:02.734Z,16.29
2022-10-22T03:26:30.639Z,16.32
2022-10-22T03:29:00.792Z,16.40
2022-10-22T03:31:28.381Z,16.46
2022-10-22T03:33:56.202Z,16.47
2022-10-22T03:36:23.898Z,16.46
2022-10-22T03:38:51.660Z,16.43
2022-10-22T03:41:20.695Z,16.37
2022-10-22T03:43:51.498Z,16.40
2022-10-22T03:46:19.195Z,16.31
2022-10-22T03:48:47.006Z,16.17
2022-10-22T03:51:14.607Z,16.06
2022-10-22T03:53:42.237Z,16.07
2022-10-22T03:56:10.995Z,16.08
2022-10-22T03:58:41.389Z,16.09
2022-10-22T04:01:10.650Z,16.11
2022-10-22T04:03:38.623Z,16.05
2022-10-22T04:06:08.699Z,15.99
2022-10-22T04:08:36.582Z,15.94
2022-10-22T04:11:04.392Z,15.93
2022-10-22T04:13:31.979Z,15.85
2022-10-22T04:16:09.647Z,15.79
2022-10-22T04:18:37.308Z,15.73
2022-10-22T04:21:06.543Z,15.69
2022-10-22T04:23:34.207Z,15.65
2022-10-22T04:26:03.445Z,15.67
2022-10-22T04:28:31.130Z,15.65
2022-10-22T04:30:58.743Z,15.62
2022-10-22T04:33:28.020Z,15.61
2022-10-22T04:35:55.687Z,15.63
2022-10-22T04:38:23.287Z,15.63
2022-10-22T04:40:50.879Z,15.64
2022-10-22T04:43:18.472Z,15.67
2022-10-22T04:45:46.141Z,15.71
2022-10-22T04:48:13.817Z,15.65
2022-10-22T04:50:42.713Z,15.69
2022-10-22T04:53:10.347Z,15.71
2022-10-22T04:55:37.992Z,15.73
2022-10-22T04:58:05.857Z,15.78
2022-10-22T05:00:33.456Z,15.87
2022-10-22T05:03:01.061Z,15.94
2022-10-22T05:05:28.642Z,15.96
2022-10-22T05:07:57.631Z,16.00
2022-10-22T05:10:25.192Z,15.99
2022-10-22T05:12:52.760Z,15.93
2022-10-22T05:15:20.365Z,15.91
2022-10-22T05:17:48.284Z,15.84
2022-10-22T05:20:15.855Z,15.86
2022-10-22T05:22:43.448Z,15.75
2022-10-22T05:25:12.654Z,15.70
2022-10-22T05:27:40.536Z,15.66
2022-10-22T05:30:09.004Z,15.58
2022-10-22T05:32:36.826Z,15.64
2022-10-22T05:35:04.703Z,15.70
2022-10-22T05:37:32.353Z,15.79
2022-10-22T05:40:12.385Z,15.77
2022-10-22T05:42:48.961Z,15.65
2022-10-22T05:45:16.535Z,15.71
2022-10-22T05:47:44.135Z,15.72
2022-10-22T05:50:11.858Z,15.67
2022-10-22T05:52:39.609Z,15.48
2022-10-22T05:55:08.018Z,15.34
2022-10-22T05:57:35.596Z,15.28
2022-10-22T06:00:05.141Z,15.32
2022-10-22T06:02:32.810Z,15.44
2022-10-22T06:05:01.045Z,15.40
2022-10-22T06:07:28.658Z,15.43
2022-10-22T06:09:56.269Z,15.52
2022-10-22T06:12:23.908Z,15.62
2022-10-22T06:14:51.463Z,15.62
2022-10-22T06:17:20.475Z,15.65
2022-10-22T06:19:48.138Z,15.58
2022-10-22T06:22:15.694Z,15.41
2022-10-22T06:24:45.113Z,15.32
2022-10-22T06:27:12.961Z,15.29
2022-10-22T06:29:40.532Z,15.40
2022-10-22T06:32:08.132Z,15.54
2022-10-22T06:34:37.097Z,15.64
2022-10-22T06:37:04.731Z,15.53
2022-10-22T06:39:32.534Z,15.50
2022-10-22T06:42:00.198Z,15.47
2022-10-22T06:44:27.782Z,15.39
2022-10-22T06:46:55.725Z,15.33
2022-10-22T06:49:23.344Z,15.33
2022-10-22T06:51:52.955Z,15.38
2022-10-22T06:54:20.634Z,15.33
2022-10-22T06:56:48.588Z,15.40
2022-10-22T06:59:16.237Z,15.48
2022-10-22T07:01:43.991Z,15.49
2022-10-22T07:04:12.308Z,15.58
2022-10-22T07:06:39.941Z,15.65
2022-10-22T07:09:09.036Z,15.71
2022-10-22T07:11:41.203Z,15.70
2022-10-22T07:14:09.126Z,15.74
2022-10-22T07:16:37.788Z,15.74
2022-10-22T07:19:06.582Z,15.83
2022-10-22T07:21:34.439Z,15.79
2022-10-22T07:24:02.167Z,15.71
2022-10-22T07:26:32.625Z,15.73
2022-10-22T07:29:00.415Z,15.81
2022-10-22T07:31:28.074Z,15.88
2022-10-22T07:33:55.818Z,15.93
2022-10-22T07:36:23.428Z,15.97
2022-10-22T07:38:55.753Z,15.96
2022-10-22T07:41:24.117Z,16.06
2022-10-22T07:43:53.165Z,16.10
2022-10-22T07:46:21.485Z,16.15
2022-10-22T07:48:49.317Z,16.21
2022-10-22T07:51:17.619Z,16.22
2022-10-22T07:53:45.246Z,16.20
2022-10-22T07:56:13.815Z,16.16
2022-10-22T07:58:41.549Z,16.20
2022-10-22T08:01:10.597Z,16.24
2022-10-22T08:03:38.257Z,16.24
2022-10-22T08:06:06.228Z,16.25
2022-10-22T08:08:34.702Z,16.30
2022-10-22T08:11:03.027Z,16.41
2022-10-22T08:13:31.505Z,16.44
2022-10-22T08:15:59.901Z,16.50
2022-10-22T08:18:29.707Z,16.60
2022-10-22T08:20:57.784Z,16.61
2022-10-22T08:23:28.753Z,16.69
2022-10-22T08:25:57.222Z,16.70
2022-10-22T08:28:24.959Z,16.75
2022-10-22T08:30:52.813Z,16.87
2022-10-22T08:33:20.434Z,17.00
2022-10-22T08:35:50.734Z,17.10
2022-10-22T08:38:19.576Z,17.35
2022-10-22T08:40:52.619Z,17.90
2022-10-22T08:43:42.123Z,18.63
2022-10-22T08:46:33.838Z,21.42
2022-10-22T08:49:03.983Z,24.03
2022-10-22T08:51:35.907Z,25.16
2022-10-22T08:54:14.623Z,25.58
2022-10-22T08:56:46.892Z,25.37
2022-10-22T08:59:20.993Z,24.99
2022-10-22T09:01:52.460Z,25.83
2022-10-22T09:04:25.484Z,27.18
2022-10-22T09:06:56.436Z,28.15
2022-10-22T09:09:28.274Z,27.49
2022-10-22T09:11:59.045Z,26.32
2022-10-22T09:14:27.452Z,25.62
2022-10-22T09:17:12.613Z,26.98
2022-10-22T09:19:48.022Z,29.29
2022-10-22T09:22:28.491Z,30.91
2022-10-22T09:25:01.122Z,30.07
2022-10-22T09:27:31.784Z,29.32
2022-10-22T09:29:59.504Z,28.48
2022-10-22T09:32:33.337Z,29.02
2022-10-22T09:35:00.963Z,29.01
2022-10-22T09:37:30.790Z,29.12
2022-10-22T09:39:59.996Z,29.96
2022-10-22T09:42:27.605Z,31.34
2022-10-22T09:44:59.035Z,30.20
2022-10-22T09:47:43.414Z,28.05
2022-10-22T09:50:27.369Z,25.92
2022-10-22T09:53:05.710Z,24.49
2022-10-22T09:55:33.500Z,23.52
2022-10-22T09:58:01.752Z,22.74
2022-10-22T10:00:30.860Z,22.17
2022-10-22T10:03:00.680Z,21.75
2022-10-22T10:05:30.749Z,21.50
2022-10-22T10:08:01.711Z,21.37
2022-10-22T10:10:36.057Z,21.35
2022-10-22T10:13:15.833Z,21.21
2022-10-22T10:15:48.617Z,21.10
2022-10-22T10:18:26.310Z,21.07
2022-10-22T10:21:00.486Z,21.16
2022-10-22T10:23:36.128Z,21.33
2022-10-22T10:26:08.521Z,21.52
2022-10-22T10:28:47.379Z,21.65
2022-10-22T10:31:21.971Z,21.67
2022-10-22T10:34:01.357Z,21.59
2022-10-22T10:36:37.876Z,21.50
2022-10-22T10:39:11.094Z,21.51
2022-10-22T10:41:47.546Z,21.41
2022-10-22T10:44:43.932Z,21.34
2022-10-22T10:47:27.315Z,21.78
2022-10-22T10:50:03.257Z,23.08
2022-10-22T10:52:41.083Z,24.94
2022-10-22T10:55:19.903Z,25.74
2022-10-22T10:57:56.882Z,25.23
2022-10-22T11:00:27.796Z,24.56
2022-10-22T11:03:20.034Z,24.25
2022-10-22T11:05:54.022Z,24.38
2022-10-22T11:08:26.441Z,24.98
2022-10-22T11:11:00.462Z,25.47
2022-10-22T11:13:32.627Z,26.01
2022-10-22T11:16:06.478Z,27.00
2022-10-22T11:18:39.374Z,26.81
2022-10-22T11:21:15.252Z,26.26
2022-10-22T11:23:47.387Z,25.91
2022-10-22T11:26:28.700Z,25.27
2022-10-22T11:29:01.197Z,24.42
2022-10-22T11:31:31.567Z,23.76
2022-10-22T11:34:28.314Z,23.25
2022-10-22T11:36:54.444Z,22.83
2022-10-22T11:39:32.963Z,22.51
2022-10-22T11:42:05.554Z,22.18
2022-10-22T11:44:46.953Z,21.93
2022-10-22T11:47:20.742Z,21.93
2022-10-22T11:49:58.551Z,21.76
2022-10-22T11:52:39.013Z,21.72
2022-10-22T11:55:32.923Z,21.61
2022-10-22T11:58:03.351Z,21.57
2022-10-22T12:00:36.938Z,21.47
2022-10-22T12:03:16.871Z,21.32
2022-10-22T12:05:45.451Z,21.37
2022-10-22T12:08:21.323Z,21.40
2022-10-22T12:10:59.485Z,21.61
2022-10-22T12:13:31.397Z,22.05
2022-10-22T12:16:02.700Z,22.17
2022-10-22T12:18:39.861Z,22.16
2022-10-22T12:21:10.125Z,22.13
2022-10-22T12:23:38.474Z,22.04
2022-10-22T12:26:06.797Z,21.96
2022-10-22T12:28:41.300Z,21.93
2022-10-22T12:31:17.031Z,21.85
2022-10-22T12:33:45.006Z,21.77
2022-10-22T12:36:18.183Z,21.63
2022-10-22T12:38:48.082Z,21.79
2022-10-22T12:41:15.804Z,21.98
2022-10-22T12:43:45.436Z,21.98
2022-10-22T12:46:14.526Z,21.91
2022-10-22T12:48:45.514Z,21.92
2022-10-22T12:51:19.591Z,21.81
2022-10-22T12:53:49.966Z,21.61
2022-10-22T12:56:23.079Z,21.49
2022-10-22T12:58:56.254Z,21.46
2022-10-22T13:01:26.515Z,21.47
2022-10-22T13:04:07.757Z,21.48
2022-10-22T13:06:36.050Z,21.32
2022-10-22T13:09:09.074Z,21.27
2022-10-22T13:11:41.411Z,21.22
2022-10-22T13:14:22.359Z,21.06
2022-10-22T13:17:11.803Z,20.83
2022-10-22T13:19:48.913Z,20.79
2022-10-22T13:22:34.772Z,20.67
2022-10-22T13:25:20.454Z,20.62
2022-10-22T13:27:50.488Z,20.64
2022-10-22T13:30:25.733Z,20.63
2022-10-22T13:32:55.856Z,20.64
2022-10-22T13:35:26.754Z,20.63
2022-10-22T13:37:54.867Z,20.64
2022-10-22T13:40:22.836Z,20.62
2022-10-22T13:42:50.673Z,20.57
2022-10-22T13:45:18.765Z,20.53
2022-10-22T13:47:51.909Z,20.48
2022-10-22T13:50:21.434Z,20.57
2022-10-22T13:52:53.599Z,20.61
2022-10-22T13:55:25.373Z,20.55
2022-10-22T13:57:54.177Z,20.54
2022-10-22T14:00:23.204Z,20.57
2022-10-22T14:02:55.348Z,20.60
2022-10-22T14:05:23.385Z,20.58
2022-10-22T14:07:51.741Z,20.55
2022-10-22T14:10:20.818Z,20.50
2022-10-22T14:12:52.404Z,20.53
2022-10-22T14:15:23.761Z,20.53
2022-10-22T14:17:55.652Z,20.54
2022-10-22T14:20:26.040Z,20.55
2022-10-22T14:22:54.383Z,20.56
2022-10-22T14:25:24.259Z,20.57
2022-10-22T14:27:52.329Z,20.59
2022-10-22T14:30:22.109Z,20.59
2022-10-22T14:32:50.283Z,20.63
2022-10-22T14:35:21.529Z,20.70
2022-10-22T14:37:49.666Z,20.77
2022-10-22T14:40:20.090Z,20.82
2022-10-22T14:42:50.245Z,20.76
2022-10-22T14:45:20.911Z,20.69
2022-10-22T14:47:49.433Z,20.72
2022-10-22T14:50:17.335Z,20.57
2022-10-22T14:55:31.242Z,20.33
2022-10-22T14:57:58.968Z,20.29
2022-10-22T15:00:26.666Z,20.25
2022-10-22T15:02:55.720Z,20.17
2022-10-22T15:05:23.712Z,20.11
2022-10-22T15:07:52.677Z,20.02
2022-10-22T15:10:20.289Z,19.96
2022-10-22T15:12:48.137Z,19.91
2022-10-22T15:15:22.811Z,19.86
2022-10-22T15:17:51.411Z,19.82
2022-10-22T15:20:19.041Z,19.77
2022-10-22T15:22:46.629Z,19.70
2022-10-22T15:25:15.747Z,19.63
2022-10-22T15:27:45.517Z,19.59
2022-10-22T15:30:16.495Z,19.52
2022-10-22T15:32:44.168Z,19.47
2022-10-22T15:35:11.855Z,19.41
2022-10-22T15:37:39.446Z,19.41
2022-10-22T15:40:08.704Z,19.36
2022-10-22T15:42:37.627Z,19.36
2022-10-22T15:45:05.874Z,19.34
2022-10-22T15:47:33.921Z,19.32
2022-10-22T15:50:01.514Z,19.30
2022-10-22T15:52:29.124Z,19.24
2022-10-22T15:54:56.693Z,19.20
2022-10-22T15:57:24.361Z,19.18
2022-10-22T15:59:53.386Z,19.16
2022-10-22T16:02:21.002Z,19.11
2022-10-22T16:04:48.669Z,19.05
2022-10-22T16:07:17.335Z,19.05
2022-10-22T16:09:46.431Z,19.02
2022-10-22T16:12:16.574Z,18.96
2022-10-22T16:14:44.976Z,18.92
2022-10-22T16:17:13.914Z,18.86
2022-10-22T16:19:41.514Z,18.81
2022-10-22T16:22:13.657Z,18.79
2022-10-22T16:24:41.364Z,18.78
2022-10-22T16:27:09.272Z,18.68
2022-10-22T16:29:38.768Z,18.65
2022-10-22T16:32:07.507Z,18.64
2022-10-22T16:34:36.405Z,18.64
2022-10-22T16:37:09.705Z,18.62
2022-10-22T16:39:37.338Z,18.57
2022-10-22T16:42:05.186Z,18.55
2022-10-22T16:44:32.749Z,18.50
2022-10-22T16:47:00.886Z,18.42
2022-10-22T16:49:28.515Z,18.39
2022-10-22T16:51:57.720Z,18.42
2022-10-22T16:54:25.421Z,18.41
2022-10-22T16:56:53.123Z,18.34
2022-10-22T16:59:20.715Z,18.35
2022-10-22T17:01:48.314Z,18.33
2022-10-22T17:04:17.259Z,18.30
2022-10-22T17:06:44.910Z,18.27
2022-10-22T17:09:14.947Z,18.22
2022-10-22T17:11:44.830Z,18.20
2022-10-22T17:14:14.550Z,18.22
2022-10-22T17:16:42.140Z,18.22
2022-10-22T17:19:13.936Z,18.20
2022-10-22T17:21:41.590Z,18.22
2022-10-22T17:24:09.950Z,18.21
2022-10-22T17:26:38.917Z,18.13
2022-10-22T17:29:06.893Z,18.00
2022-10-22T17:31:37.893Z,17.92
2022-10-22T17:34:07.154Z,17.88
2022-10-22T17:36:36.183Z,17.87
2022-10-22T17:39:07.342Z,17.84
2022-10-22T17:41:37.967Z,17.85
2022-10-22T17:44:09.818Z,17.85
2022-10-22T17:46:38.416Z,17.86
2022-10-22T17:49:09.183Z,17.85
2022-10-22T17:51:36.755Z,17.85
2022-10-22T17:54:07.377Z,17.85
2022-10-22T17:56:40.284Z,17.87
2022-10-22T17:59:10.648Z,17.88
2022-10-22T18:01:43.289Z,17.83
2022-10-22T18:04:14.182Z,17.78
2022-10-22T18:06:41.899Z,17.84
2022-10-22T18:09:17.264Z,17.87
2022-10-22T18:11:46.488Z,17.87
2022-10-22T18:14:15.535Z,17.87
2022-10-22T18:16:43.151Z,17.84
2022-10-22T18:19:11.442Z,17.81
2022-10-22T18:21:39.086Z,17.74
2022-10-22T18:24:07.467Z,17.61
2022-10-22T18:26:35.678Z,17.52
2022-10-22T18:29:03.379Z,17.39
2022-10-22T18:31:32.768Z,17.35
2022-10-22T18:34:00.510Z,17.42
2022-10-22T18:36:28.922Z,17.46
2022-10-22T18:38:58.510Z,17.50
2022-10-22T18:41:27.530Z,17.52
2022-10-22T18:43:56.731Z,17.43
2022-10-22T18:46:24.924Z,17.41
2022-10-22T18:48:55.499Z,17.42
2022-10-22T18:51:24.218Z,17.39
2022-10-22T18:54:05.350Z,17.23
2022-10-22T18:56:40.631Z,17.10
2022-10-22T18:59:14.336Z,17.03
2022-10-22T19:01:42.187Z,17.05
2022-10-22T19:04:11.098Z,17.06
2022-10-22T19:06:41.792Z,17.04
2022-10-22T19:09:13.627Z,17.09
2022-10-22T19:11:41.330Z,17.19
2022-10-22T19:14:08.891Z,17.21
2022-10-22T19:16:37.640Z,17.09
2022-10-22T19:19:07.205Z,17.15
2022-10-22T19:21:37.530Z,17.12
2022-10-22T19:24:05.505Z,17.10
2022-10-22T19:26:33.107Z,17.16
2022-10-22T19:29:01.540Z,17.24
2022-10-22T19:31:31.130Z,17.27
2022-10-22T19:33:59.593Z,17.29
2022-10-22T19:36:28.794Z,17.29
2022-10-22T19:38:58.301Z,17.25
2022-10-22T19:41:27.908Z,17.17
2022-10-22T19:43:56.825Z,17.11
2022-10-22T19:46:26.600Z,17.09
2022-10-22T19:48:56.191Z,17.06
2022-10-22T19:51:25.760Z,17.01
2022-10-22T19:54:00.565Z,17.03
2022-10-22T19:56:28.572Z,17.07
2022-10-22T19:58:56.284Z,17.07
2022-10-22T20:01:24.156Z,17.08
2022-10-22T20:03:51.876Z,17.09
2022-10-22T20:06:21.830Z,17.04
2022-10-22T20:08:52.484Z,17.05
2022-10-22T20:11:26.190Z,16.99
2022-10-22T20:13:53.864Z,16.96
2022-10-22T20:16:25.013Z,16.99
2022-10-22T20:18:52.900Z,17.01
2022-10-22T20:21:21.907Z,16.95
2022-10-22T20:23:54.055Z,16.98
2022-10-22T20:26:23.693Z,16.93
2022-10-22T20:28:52.719Z,16.93
2022-10-22T20:31:22.203Z,16.91
2022-10-22T20:33:51.353Z,16.92
2022-10-22T20:36:20.751Z,16.92
2022-10-22T20:38:48.842Z,16.88
2022-10-22T20:41:19.088Z,16.79
2022-10-22T20:43:48.026Z,16.73
2022-10-22T20:46:19.731Z,16.66
2022-10-22T20:48:47.629Z,16.60
2022-10-22T20:51:15.247Z,16.56
2022-10-22T20:53:43.001Z,16.52
2022-10-22T20:56:11.056Z,16.52
2022-10-22T20:58:39.079Z,16.56
2022-10-22T21:01:12.022Z,16.63
2022-10-22T21:03:40.945Z,16.64
2022-10-22T21:06:08.926Z,16.65
2022-10-22T21:08:36.562Z,16.64
2022-10-22T21:11:04.118Z,16.60
2022-10-22T21:13:33.167Z,16.59
2022-10-22T21:16:00.802Z,16.59
2022-10-22T21:18:28.370Z,16.55
2022-10-22T21:20:57.269Z,16.50
2022-10-22T21:23:24.907Z,16.45
2022-10-22T21:25:56.637Z,16.53
2022-10-22T21:28:24.346Z,16.56
2022-10-22T21:30:51.977Z,16.54
2022-10-22T21:33:19.641Z,16.55
2022-10-22T21:35:54.697Z,16.37
2022-10-22T21:38:25.210Z,16.39
2022-10-22T21:40:53.575Z,16.34
2022-10-22T21:43:21.404Z,16.26
2022-10-22T21:45:49.196Z,16.22
2022-10-22T21:48:17.123Z,16.27
2022-10-22T21:50:45.411Z,16.25
2022-10-22T21:53:13.756Z,16.20
2022-10-22T21:55:43.112Z,16.11
2022-10-22T21:58:10.737Z,16.16
2022-10-22T22:00:38.319Z,16.11
2022-10-22T22:03:08.247Z,16.10
2022-10-22T22:05:35.818Z,16.11
2022-10-22T22:08:03.436Z,16.12
2022-10-22T22:10:31.214Z,16.10
2022-10-22T22:13:00.224Z,16.03
2022-10-22T22:15:28.684Z,16.05
2022-10-22T22:17:56.384Z,15.99
2022-10-22T22:20:24.219Z,15.96
2022-10-22T22:22:51.866Z,15.93
2022-10-22T22:25:19.540Z,15.88
2022-10-22T22:27:47.162Z,15.78
2022-10-22T22:30:17.819Z,15.71
2022-10-22T22:32:45.470Z,15.75
2022-10-22T22:35:13.370Z,15.83
2022-10-22T22:37:41.305Z,15.89
2022-10-22T22:40:10.124Z,15.92
2022-10-22T22:42:37.811Z,15.92
2022-10-22T22:45:05.935Z,15.94
2022-10-22T22:47:34.856Z,15.90
2022-10-22T22:50:02.512Z,15.91
2022-10-22T22:52:30.107Z,15.91
2022-10-22T22:54:57.687Z,15.83
2022-10-22T22:57:25.317Z,15.77
2022-10-22T22:59:53.314Z,15.80
2022-10-22T23:02:20.932Z,15.80
2022-10-22T23:04:49.921Z,15.86
2022-10-22T23:07:17.552Z,15.87
2022-10-22T23:09:45.331Z,15.85
2022-10-22T23:12:12.905Z,15.83
2022-10-22T23:14:40.572Z,15.80
2022-10-22T23:17:08.215Z,15.78
2022-10-22T23:19:35.855Z,15.74
2022-10-22T23:22:04.885Z,15.66
2022-10-22T23:24:32.594Z,15.63
2022-10-22T23:27:02.876Z,15.63
2022-10-22T23:29:32.445Z,15.57
2022-10-22T23:32:01.710Z,15.54
2022-10-22T23:34:30.358Z,15.52
2022-10-22T23:36:58.947Z,15.53
2022-10-22T23:39:29.300Z,15.58
2022-10-22T23:41:57.636Z,15.54
2022-10-22T23:44:25.737Z,15.51
2022-10-22T23:46:53.482Z,15.52
2022-10-22T23:49:21.138Z,15.51
2022-10-22T23:51:49.131Z,15.46
2022-10-22T23:54:17.769Z,15.42
2022-10-22T23:56:47.098Z,15.41
